Time;durP1;ratioP1;P1;durP2;ratioP2;P2;SDS_P1;SDS_P2;PMS_P1;PMS_P2;Temp;Humidity;BMP_temperature;BMP_pressure;BME280_temperature;BME280_humidity;BME280_pressure;Samples;Min_cycle;Max_cycle;Signal;HPM_P1;HPM_P2
2021/11/01 00:02:05;;;;;;;28.07;5.37;;;10.40;99.90;;;;;;5034807;28;20266;-77
2021/11/01 00:04:30;;;;;;;19.77;4.60;;;10.40;99.90;;;;;;5034566;28;20450;-75
2021/11/01 00:06:56;;;;;;;28.80;6.57;;;10.30;99.90;;;;;;5034278;28;20179;-76
2021/11/01 00:09:21;;;;;;;20.90;5.37;;;10.30;99.90;;;;;;5033249;28;20535;-78
2021/11/01 00:11:47;;;;;;;22.23;6.47;;;10.30;99.90;;;;;;5033689;28;20215;-77
2021/11/01 00:14:13;;;;;;;23.10;5.13;;;10.20;99.90;;;;;;5033161;28;20188;-78
2021/11/01 00:16:40;;;;;;;13.93;4.13;;;10.20;99.90;;;;;;5035445;28;20207;-78
2021/11/01 00:19:06;;;;;;;18.00;4.67;;;10.20;99.90;;;;;;5031966;28;20203;-77
2021/11/01 00:21:31;;;;;;;20.53;4.60;;;10.20;99.90;;;;;;5033184;28;20489;-78
2021/11/01 00:23:57;;;;;;;26.83;5.27;;;10.10;99.90;;;;;;5031501;28;20180;-78
2021/11/01 00:26:22;;;;;;;20.70;4.90;;;10.10;99.90;;;;;;5034452;28;20191;-77
2021/11/01 00:28:51;;;;;;;19.03;3.97;;;10.00;99.90;;;;;;5043446;28;20647;-78
2021/11/01 00:31:16;;;;;;;23.73;5.67;;;10.00;99.90;;;;;;5044776;28;20633;-79
2021/11/01 00:33:42;;;;;;;16.97;4.50;;;10.00;99.90;;;;;;5039927;28;20450;-79
2021/11/01 00:36:08;;;;;;;11.10;3.90;;;10.00;99.90;;;;;;5037003;28;20207;-78
2021/11/01 00:38:34;;;;;;;12.87;4.10;;;9.90;99.90;;;;;;5037247;28;20180;-79
2021/11/01 00:41:00;;;;;;;13.90;4.20;;;9.80;99.90;;;;;;5036842;28;20449;-79
2021/11/01 00:43:26;;;;;;;29.93;4.80;;;9.70;99.90;;;;;;5035770;28;20472;-80
2021/11/01 00:45:52;;;;;;;16.80;5.00;;;9.80;99.90;;;;;;5035874;28;20423;-79
2021/11/01 00:48:17;;;;;;;24.47;5.23;;;9.80;99.90;;;;;;5036730;28;20182;-79
2021/11/01 00:50:45;;;;;;;13.13;4.37;;;9.80;99.90;;;;;;5035844;28;20453;-78
2021/11/01 00:53:11;;;;;;;34.40;4.10;;;9.80;99.90;;;;;;5036456;28;20174;-79
2021/11/01 00:55:48;;;;;;;17.50;4.73;;;9.80;99.90;;;;;;5036221;28;20446;-80
2021/11/01 00:58:15;;;;;;;12.13;3.70;;;9.90;99.90;;;;;;5036426;28;20174;-78
2021/11/01 01:00:41;;;;;;;15.73;4.20;;;9.80;99.90;;;;;;5039917;28;20470;-79
2021/11/01 01:03:06;;;;;;;23.30;4.90;;;9.80;99.90;;;;;;5037963;28;20406;-79
2021/11/01 01:05:32;;;;;;;14.23;4.07;;;9.70;99.90;;;;;;5035807;28;20648;-78
2021/11/01 01:07:58;;;;;;;17.07;5.03;;;9.60;99.90;;;;;;5032689;28;20175;-78
2021/11/01 01:10:23;;;;;;;19.70;5.07;;;9.60;99.90;;;;;;5032172;28;20199;-77
2021/11/01 01:12:49;;;;;;;22.60;5.00;;;9.60;99.90;;;;;;5031810;28;20449;-78
2021/11/01 01:15:22;;;;;;;23.63;4.80;;;9.50;99.90;;;;;;5036695;28;20188;-79
2021/11/01 01:17:48;;;;;;;14.73;3.60;;;9.50;99.90;;;;;;5037375;28;20167;-80
2021/11/01 01:20:16;;;;;;;32.77;4.07;;;9.50;99.90;;;;;;5036997;28;20457;-78
2021/11/01 01:22:45;;;;;;;20.03;4.00;;;9.50;99.90;;;;;;5039782;28;20410;-78
2021/11/01 01:25:40;;;;;;;17.00;4.10;;;9.50;99.90;;;;;;5040185;28;20429;-77
2021/11/01 01:28:06;;;;;;;12.57;3.93;;;9.50;99.90;;;;;;5037755;28;20521;-78
2021/11/01 01:30:32;;;;;;;16.60;3.90;;;9.50;99.90;;;;;;5044942;28;20440;-76
2021/11/01 01:32:57;;;;;;;16.20;4.43;;;9.40;99.90;;;;;;5056730;28;20194;-77
2021/11/01 01:35:23;;;;;;;15.13;4.07;;;9.30;99.90;;;;;;5055720;28;20193;-77
2021/11/01 01:37:53;;;;;;;15.33;3.20;;;9.30;99.90;;;;;;5042737;28;20182;-76
2021/11/01 01:40:19;;;;;;;11.43;3.27;;;9.40;99.90;;;;;;5036418;28;20194;-75
2021/11/01 01:42:45;;;;;;;26.53;4.87;;;9.50;99.90;;;;;;5034359;28;20862;-76
2021/11/01 01:45:12;;;;;;;23.27;4.20;;;9.40;99.90;;;;;;5035695;28;20425;-76
2021/11/01 01:47:40;;;;;;;24.13;4.27;;;9.30;99.90;;;;;;5035361;28;20171;-77
2021/11/01 01:50:07;;;;;;;23.43;3.10;;;9.30;99.90;;;;;;5035546;28;20443;-77
2021/11/01 01:52:33;;;;;;;8.10;3.20;;;9.40;99.90;;;;;;5035284;28;20459;-77
2021/11/01 01:54:58;;;;;;;16.43;3.10;;;9.40;99.90;;;;;;5035281;28;20412;-77
2021/11/01 01:57:24;;;;;;;15.80;3.37;;;9.30;99.90;;;;;;5035180;28;20646;-77
2021/11/01 01:59:50;;;;;;;22.97;3.00;;;9.30;99.90;;;;;;5035368;28;20186;-76
2021/11/01 02:02:16;;;;;;;20.50;4.40;;;9.40;99.90;;;;;;5034986;28;20417;-76
2021/11/01 02:04:42;;;;;;;9.27;2.30;;;9.40;99.90;;;;;;5035422;28;20172;-76
2021/11/01 02:07:13;;;;;;;15.50;3.70;;;9.40;99.90;;;;;;5035596;28;20583;-76
2021/11/01 02:10:15;;;;;;;11.57;2.47;;;9.50;99.90;;;;;;5036059;28;20490;-77
2021/11/01 02:12:53;;;;;;;8.80;2.60;;;9.50;99.90;;;;;;5035039;28;20413;-77
2021/11/01 02:15:39;;;;;;;9.40;3.20;;;9.60;99.90;;;;;;5035199;28;20953;-77
2021/11/01 02:18:07;;;;;;;15.50;2.93;;;9.50;99.90;;;;;;5036883;28;20841;-77
2021/11/01 02:20:36;;;;;;;12.90;3.00;;;9.50;99.90;;;;;;5037911;28;20545;-77
2021/11/01 02:23:15;;;;;;;11.40;2.60;;;9.60;99.90;;;;;;5037036;28;20406;-76
2021/11/01 02:26:00;;;;;;;7.10;3.23;;;9.60;99.90;;;;;;5044007;28;20927;-77
2021/11/01 02:28:38;;;;;;;7.70;2.60;;;9.60;99.90;;;;;;5040306;28;20429;-77
2021/11/01 02:31:06;;;;;;;11.10;2.90;;;9.60;99.90;;;;;;5054594;28;20412;-78
2021/11/01 02:33:32;;;;;;;14.77;3.10;;;9.50;99.90;;;;;;5046290;28;20432;-78
2021/11/01 02:35:59;;;;;;;14.07;3.63;;;9.50;99.90;;;;;;5039393;28;20465;-77
2021/11/01 02:38:28;;;;;;;16.27;2.97;;;9.50;99.90;;;;;;5037976;28;20406;-77
2021/11/01 02:40:54;;;;;;;10.30;3.37;;;9.40;99.90;;;;;;5037306;28;20431;-77
2021/11/01 02:43:19;;;;;;;10.17;2.97;;;9.30;99.90;;;;;;5037869;28;20426;-78
2021/11/01 02:45:45;;;;;;;14.23;3.37;;;9.30;99.90;;;;;;5040034;28;20213;-77
2021/11/01 02:48:11;;;;;;;9.97;2.93;;;9.20;99.90;;;;;;5038454;28;20438;-77
2021/11/01 02:50:38;;;;;;;15.97;3.20;;;9.20;99.90;;;;;;5035843;28;20194;-77
2021/11/01 02:53:04;;;;;;;18.83;3.53;;;9.20;99.90;;;;;;5035604;28;20508;-77
2021/11/01 02:55:31;;;;;;;13.97;4.20;;;9.10;99.90;;;;;;5036574;28;20812;-77
2021/11/01 02:57:57;;;;;;;18.60;3.50;;;9.00;99.90;;;;;;5040064;28;20436;-77
2021/11/01 03:00:25;;;;;;;11.80;3.30;;;9.00;99.90;;;;;;5042848;28;20511;-76
2021/11/01 03:02:52;;;;;;;16.97;3.50;;;8.90;99.90;;;;;;5040778;28;20178;-75
2021/11/01 03:05:20;;;;;;;24.43;3.80;;;8.90;99.90;;;;;;5036216;28;20513;-76
2021/11/01 03:07:49;;;;;;;26.27;4.50;;;8.90;99.90;;;;;;5034304;28;20432;-76
2021/11/01 03:10:17;;;;;;;9.20;3.10;;;8.90;99.90;;;;;;5034097;28;20496;-76
2021/11/01 03:12:45;;;;;;;6.30;2.50;;;9.00;99.90;;;;;;5035915;28;20421;-76
2021/11/01 03:15:20;;;;;;;9.57;2.77;;;9.10;99.90;;;;;;5040676;28;20460;-76
2021/11/01 03:17:49;;;;;;;9.13;2.30;;;9.10;99.90;;;;;;5038963;28;20496;-76
2021/11/01 03:20:18;;;;;;;10.43;2.77;;;9.00;99.90;;;;;;5034218;28;20454;-77
2021/11/01 03:22:50;;;;;;;10.40;2.90;;;9.10;99.90;;;;;;5034111;28;20415;-76
2021/11/01 03:25:23;;;;;;;16.80;3.30;;;9.00;99.90;;;;;;5033915;28;20466;-77
2021/11/01 03:27:51;;;;;;;12.90;3.40;;;9.10;99.90;;;;;;5033634;28;20445;-76
2021/11/01 03:30:18;;;;;;;8.63;2.37;;;9.10;99.90;;;;;;5041617;28;20493;-76
2021/11/01 03:32:45;;;;;;;15.23;2.67;;;9.10;99.90;;;;;;5056158;28;20944;-78
2021/11/01 03:35:11;;;;;;;13.33;3.73;;;9.20;99.90;;;;;;5039573;28;20465;-77
2021/11/01 03:37:39;;;;;;;11.73;4.40;;;9.10;99.90;;;;;;5033891;28;20418;-76
2021/11/01 03:40:06;;;;;;;15.73;3.20;;;9.10;99.90;;;;;;5033764;28;20963;-76
2021/11/01 03:42:32;;;;;;;16.63;3.53;;;9.20;99.90;;;;;;5032031;28;20425;-76
2021/11/01 03:45:03;;;;;;;12.27;2.93;;;9.20;99.90;;;;;;5032743;28;20434;-76
2021/11/01 03:47:32;;;;;;;14.50;2.63;;;9.20;99.90;;;;;;5033703;28;20409;-76
2021/11/01 03:50:06;;;;;;;10.63;3.47;;;9.20;99.90;;;;;;5032235;28;20443;-76
2021/11/01 03:52:35;;;;;;;20.47;3.70;;;9.20;99.90;;;;;;5032740;28;20403;-76
2021/11/01 03:55:03;;;;;;;12.03;3.10;;;9.30;99.90;;;;;;5033311;28;20498;-77
2021/11/01 03:57:28;;;;;;;9.93;2.53;;;9.30;99.90;;;;;;5031830;28;20453;-76
2021/11/01 03:59:54;;;;;;;9.60;3.17;;;9.20;99.90;;;;;;5031691;28;20486;-76
2021/11/01 04:02:21;;;;;;;10.23;3.03;;;9.30;99.90;;;;;;5034104;28;20179;-76
2021/11/01 04:04:50;;;;;;;11.33;2.60;;;9.30;99.90;;;;;;5033287;28;20481;-77
2021/11/01 04:07:17;;;;;;;16.27;3.03;;;9.30;99.90;;;;;;5038213;28;20409;-78
2021/11/01 04:09:43;;;;;;;5.73;2.70;;;9.30;99.80;;;;;;5041458;28;20431;-78
2021/11/01 04:12:10;;;;;;;10.33;2.83;;;9.40;99.90;;;;;;5041317;28;20403;-78
2021/11/01 04:14:48;;;;;;;9.50;3.13;;;9.40;97.40;;;;;;5041367;28;20516;-78
2021/11/01 04:22:45;;;;;;;8.50;2.17;;;9.40;95.90;;;;;;5041062;28;20425;-79
2021/11/01 04:25:11;;;;;;;9.37;2.30;;;9.30;96.70;;;;;;5039040;28;20414;-78
2021/11/01 04:27:38;;;;;;;6.30;2.40;;;9.30;98.40;;;;;;5033594;28;20445;-76
2021/11/01 04:30:05;;;;;;;3.43;1.83;;;9.20;99.80;;;;;;5038685;28;20194;-76
2021/11/01 04:32:39;;;;;;;12.10;1.83;;;9.20;99.90;;;;;;5039094;28;20433;-75
2021/11/01 04:37:42;;;;;;;8.43;1.87;;;9.10;99.90;;;;;;5033771;28;20555;-76
2021/11/01 04:53:25;;;;;;;9.50;2.67;;;9.00;99.90;;;;;;5033140;28;20917;-78
2021/11/01 04:55:52;;;;;;;4.53;2.43;;;9.00;99.90;;;;;;5032089;28;20517;-77
2021/11/01 04:58:17;;;;;;;10.77;2.40;;;9.00;99.90;;;;;;5035241;28;20910;-77
2021/11/01 05:00:47;;;;;;;11.60;3.30;;;9.00;99.90;;;;;;5034320;28;20425;-78
2021/11/01 05:03:28;;;;;;;12.33;2.73;;;9.00;99.90;;;;;;5034448;28;20647;-78
2021/11/01 05:05:54;;;;;;;12.40;2.27;;;9.00;99.90;;;;;;5033177;28;20506;-77
2021/11/01 05:08:23;;;;;;;11.67;3.60;;;8.90;99.90;;;;;;5032975;28;20423;-78
2021/11/01 05:10:51;;;;;;;5.13;2.40;;;8.90;99.90;;;;;;5033882;28;20434;-78
2021/11/01 05:13:23;;;;;;;12.53;3.03;;;8.90;99.90;;;;;;5031844;28;20768;-77
2021/11/01 05:15:54;;;;;;;7.50;2.40;;;8.80;99.90;;;;;;5033573;28;20467;-77
2021/11/01 05:18:34;;;;;;;7.87;2.40;;;8.90;99.90;;;;;;5032356;28;20451;-77
2021/11/01 05:23:41;;;;;;;16.90;3.10;;;8.90;99.90;;;;;;5032683;28;20817;-77
2021/11/01 05:26:16;;;;;;;14.83;3.67;;;8.80;99.90;;;;;;5032738;28;20416;-78
2021/11/01 05:28:58;;;;;;;11.80;2.80;;;8.80;99.90;;;;;;5034888;28;20411;-78
2021/11/01 05:31:27;;;;;;;12.73;2.30;;;8.70;99.90;;;;;;5034915;28;20423;-78
2021/11/01 05:34:08;;;;;;;6.47;2.90;;;8.70;99.90;;;;;;5036902;28;20511;-78
2021/11/01 05:36:34;;;;;;;7.20;3.30;;;8.60;99.90;;;;;;5032223;28;20479;-76
2021/11/01 05:39:00;;;;;;;15.00;3.07;;;8.60;99.90;;;;;;5032152;28;20839;-76
2021/11/01 05:41:25;;;;;;;9.20;3.60;;;8.50;99.90;;;;;;5031958;28;20407;-77
2021/11/01 05:43:51;;;;;;;22.27;4.70;;;8.60;99.90;;;;;;5032097;28;20640;-77
2021/11/01 05:46:17;;;;;;;12.83;3.77;;;8.50;99.90;;;;;;5032329;28;20250;-80
2021/11/01 05:48:49;;;;;;;13.00;3.20;;;8.40;99.90;;;;;;5032030;28;20203;-76
2021/11/01 05:51:16;;;;;;;13.50;3.80;;;8.50;99.90;;;;;;5031374;28;20468;-76
2021/11/01 05:53:44;;;;;;;13.23;3.57;;;8.40;99.90;;;;;;5032539;28;20415;-76
2021/11/01 05:56:33;;;;;;;14.23;4.00;;;8.40;99.90;;;;;;5032068;28;20450;-76
2021/11/01 05:59:19;;;;;;;8.17;3.13;;;8.40;99.90;;;;;;5031534;28;20434;-79
2021/11/01 06:15:08;;;;;;;23.20;2.53;;;8.60;99.90;;;;;;5021024;28;20429;-77
2021/11/01 06:17:33;;;;;;;10.30;3.30;;;8.50;99.90;;;;;;5019543;28;20494;-78
2021/11/01 06:19:59;;;;;;;16.48;3.88;;;8.50;99.90;;;;;;5034996;28;20450;-78
2021/11/01 06:22:25;;;;;;;19.52;4.10;;;8.60;99.90;;;;;;5039545;28;20390;-78
2021/11/01 06:24:52;;;;;;;12.98;3.97;;;8.40;99.90;;;;;;5052178;28;20385;-77
2021/11/01 06:27:21;;;;;;;17.25;3.38;;;8.40;99.90;;;;;;5042091;28;20466;-78
2021/11/01 06:32:36;;;;;;;13.48;3.70;;;8.50;99.90;;;;;;5057908;28;20384;-77
2021/11/01 06:53:39;;;;;;;13.57;2.60;;;8.80;96.00;;;;;;5017447;28;20401;-77
2021/11/01 06:58:44;;;;;;;13.30;3.53;;;9.00;90.50;;;;;;5041931;28;20406;-78
2021/11/01 07:15:04;;;;;;;12.15;3.00;;;9.10;84.80;;;;;;5036721;28;20449;-77
2021/11/01 07:17:43;;;;;;;11.88;2.55;;;9.20;82.40;;;;;;5036021;28;20421;-77
2021/11/01 07:30:53;;;;;;;13.52;2.95;;;9.40;78.10;;;;;;5045103;28;20386;-75
2021/11/01 08:27:55;;;;;;;8.80;2.85;;;11.60;51.90;;;;;;5034037;28;20811;-77
2021/11/01 09:05:03;;;;;;;12.07;3.50;;;13.00;44.10;;;;;;5031281;28;20788;-76
2021/11/01 09:07:41;;;;;;;10.60;3.13;;;13.10;41.30;;;;;;5031065;28;20505;-75
2021/11/01 09:26:08;;;;;;;11.63;3.37;;;13.40;39.20;;;;;;5030826;28;20452;-74
2021/11/01 09:28:37;;;;;;;14.02;3.30;;;13.50;39.30;;;;;;5029714;28;20407;-75
2021/11/01 09:35:47;;;;;;;7.40;2.47;;;13.80;36.40;;;;;;5030152;28;20819;-74
2021/11/01 09:41:49;;;;;;;8.88;2.47;;;14.40;34.30;;;;;;5029568;28;20902;-76
2021/11/01 09:44:21;;;;;;;11.05;2.65;;;14.40;32.90;;;;;;5031440;28;20414;-76
2021/11/01 09:46:47;;;;;;;10.65;2.60;;;14.40;33.10;;;;;;5026908;28;20525;-75
2021/11/01 09:49:16;;;;;;;10.15;2.60;;;14.30;33.40;;;;;;5049356;28;20498;-76
2021/11/01 09:51:45;;;;;;;7.07;2.40;;;14.40;33.30;;;;;;5034400;28;20470;-76
2021/11/01 09:54:20;;;;;;;9.68;2.47;;;14.50;31.60;;;;;;5033959;28;20391;-76
2021/11/01 09:57:01;;;;;;;13.15;2.55;;;14.50;30.80;;;;;;5033754;28;20422;-77
2021/11/01 09:59:41;;;;;;;12.20;2.70;;;14.50;30.90;;;;;;5030403;28;20430;-77
2021/11/01 10:02:10;;;;;;;10.07;2.80;;;14.40;32.00;;;;;;5031693;28;20911;-76
2021/11/01 10:04:37;;;;;;;9.90;2.28;;;14.20;33.20;;;;;;5029135;28;20713;-77
2021/11/01 10:07:19;;;;;;;4.63;2.38;;;14.20;32.10;;;;;;5037575;28;20486;-76
2021/11/01 10:09:47;;;;;;;3.70;2.03;;;14.10;32.80;;;;;;5040798;28;20399;-76
2021/11/01 10:12:19;;;;;;;13.52;2.90;;;14.20;31.90;;;;;;5025220;28;20424;-76
2021/11/01 10:14:57;;;;;;;7.38;2.13;;;14.30;31.60;;;;;;5035712;28;20403;-76
2021/11/01 10:17:35;;;;;;;6.50;2.22;;;14.40;30.50;;;;;;5033942;28;20438;-74
2021/11/01 10:20:08;;;;;;;10.40;2.10;;;14.60;30.50;;;;;;5031995;28;20399;-74
2021/11/01 10:22:40;;;;;;;11.05;2.35;;;14.70;29.50;;;;;;5033587;28;20391;-74
2021/11/01 10:25:07;;;;;;;10.05;1.80;;;14.80;29.90;;;;;;5032668;28;20752;-74
2021/11/01 10:27:39;;;;;;;7.20;1.90;;;14.70;28.80;;;;;;5031192;28;20414;-74
2021/11/01 10:30:07;;;;;;;6.20;2.50;;;14.60;28.10;;;;;;5047309;28;20427;-74
2021/11/01 10:32:45;;;;;;;9.83;2.50;;;14.70;28.40;;;;;;5040909;28;20467;-74
2021/11/01 10:35:23;;;;;;;9.60;2.63;;;14.80;28.80;;;;;;5047542;28;20371;-81
2021/11/01 10:38:19;;;;;;;7.25;2.20;;;14.90;29.20;;;;;;5030305;28;20393;-80
2021/11/01 10:41:08;;;;;;;6.90;1.98;;;15.10;28.10;;;;;;5040963;28;20399;-76
2021/11/01 11:11:28;;;;;;;6.10;2.20;;;15.30;24.10;;;;;;5037757;28;20417;-79
2021/11/01 11:14:00;;;;;;;8.63;2.13;;;15.20;24.00;;;;;;5034146;28;20490;-76
2021/11/01 11:19:19;;;;;;;6.43;2.10;;;14.80;24.10;;;;;;5036033;28;20399;-80
2021/11/01 11:48:24;;;;;;;6.30;2.10;;;13.80;25.30;;;;;;5039320;28;20422;-75
2021/11/01 11:50:51;;;;;;;9.48;1.75;;;13.90;25.10;;;;;;5043171;28;20401;-74
2021/11/01 11:53:21;;;;;;;9.98;1.70;;;14.00;25.10;;;;;;5059478;28;20922;-77
2021/11/01 11:56:03;;;;;;;5.65;1.75;;;14.10;24.40;;;;;;5041122;28;20439;-74
2021/11/01 11:58:38;;;;;;;3.88;1.70;;;14.40;24.00;;;;;;5034265;28;20481;-74
2021/11/01 12:01:30;;;;;;;8.40;1.65;;;14.50;23.10;;;;;;5041421;28;20418;-74
2021/11/01 12:04:01;;;;;;;3.90;1.52;;;14.60;22.70;;;;;;5035908;28;20394;-77
2021/11/01 12:06:56;;;;;;;4.20;1.90;;;14.70;22.10;;;;;;5036964;28;20399;-76
2021/11/01 12:09:26;;;;;;;6.68;1.63;;;15.00;21.20;;;;;;5036574;28;20393;-76
2021/11/01 12:17:28;;;;;;;2.63;1.30;;;15.10;20.30;;;;;;5023063;28;20509;-77
2021/11/01 12:19:57;;;;;;;6.47;2.10;;;15.00;20.50;;;;;;5033348;28;20405;-77
2021/11/01 12:22:32;;;;;;;8.25;2.03;;;15.00;20.70;;;;;;5038916;28;20788;-76
2021/11/01 12:25:01;;;;;;;10.93;2.00;;;15.00;21.50;;;;;;5040916;28;20470;-76
2021/11/01 12:27:27;;;;;;;6.80;1.90;;;14.90;20.60;;;;;;5039851;28;20399;-77
2021/11/01 12:29:54;;;;;;;5.85;2.03;;;14.80;21.60;;;;;;5039991;28;20389;-78
2021/11/01 12:32:21;;;;;;;6.40;1.92;;;14.90;21.10;;;;;;5058869;28;20396;-76
2021/11/01 12:35:02;;;;;;;3.33;1.70;;;15.10;21.10;;;;;;5043896;28;20440;-75
2021/11/01 12:37:31;;;;;;;4.70;1.50;;;15.10;20.70;;;;;;5038449;28;20414;-76
2021/11/01 12:40:07;;;;;;;4.30;1.90;;;15.30;21.00;;;;;;5038934;28;20414;-75
2021/11/01 12:42:43;;;;;;;5.25;1.80;;;15.60;19.90;;;;;;5039522;28;20426;-78
2021/11/01 12:57:08;;;;;;;7.50;1.90;;;15.10;21.10;;;;;;5033629;28;20485;-77
2021/11/01 12:59:41;;;;;;;8.50;1.83;;;15.20;20.00;;;;;;5031962;28;20370;-77
2021/11/01 13:02:41;;;;;;;7.70;1.92;;;15.10;20.60;;;;;;5031590;28;20394;-76
2021/11/01 13:05:25;;;;;;;6.72;1.35;;;15.10;20.70;;;;;;5023858;28;20398;-75
2021/11/01 13:08:05;;;;;;;9.48;1.83;;;15.10;20.30;;;;;;5033124;28;20418;-76
2021/11/01 13:10:43;;;;;;;9.23;2.00;;;15.20;20.20;;;;;;5013363;28;20397;-77
2021/11/01 13:19:15;;;;;;;5.00;1.40;;;15.60;20.00;;;;;;5018654;28;20471;-78
2021/11/01 13:24:24;;;;;;;6.93;1.80;;;15.40;19.50;;;;;;5015507;28;20993;-76
2021/11/01 13:34:42;;;;;;;9.57;1.90;;;15.50;19.90;;;;;;5015035;28;20397;-77
2021/11/01 13:37:32;;;;;;;5.65;2.05;;;15.80;19.70;;;;;;5032758;28;20429;-77
2021/11/01 13:40:16;;;;;;;10.30;2.00;;;16.00;18.90;;;;;;5033128;28;20395;-77
2021/11/01 13:42:57;;;;;;;4.27;1.37;;;16.00;18.70;;;;;;5033170;28;20450;-76
2021/11/01 13:45:24;;;;;;;7.57;2.00;;;16.10;18.60;;;;;;5034131;28;20482;-78
2021/11/01 13:47:51;;;;;;;8.27;2.20;;;16.40;18.60;;;;;;5032998;28;20397;-76
2021/11/01 13:50:20;;;;;;;6.13;2.03;;;17.00;17.30;;;;;;5032613;28;20399;-76
2021/11/01 13:53:03;;;;;;;5.03;1.45;;;17.50;16.40;;;;;;5031239;28;20409;-76
2021/11/01 13:55:50;;;;;;;4.80;1.80;;;17.80;14.90;;;;;;5031178;28;20467;-76
2021/11/01 14:01:24;;;;;;;7.60;2.05;;;17.40;15.20;;;;;;5032074;28;20409;-74
2021/11/01 14:12:26;;;;;;;8.10;2.00;;;18.00;14.70;;;;;;5030662;28;20398;-76
2021/11/01 14:15:19;;;;;;;5.13;1.80;;;18.40;13.90;;;;;;5030310;28;20396;-75
2021/11/01 14:28:36;;;;;;;14.75;2.40;;;17.60;15.60;;;;;;5033368;28;20394;-77
2021/11/01 14:34:03;;;;;;;9.02;2.30;;;17.10;15.90;;;;;;5035040;28;20421;-77
2021/11/01 14:56:07;;;;;;;4.70;1.80;;;14.90;20.60;;;;;;5039749;28;20500;-78
2021/11/01 14:58:45;;;;;;;4.47;1.75;;;14.90;20.80;;;;;;5037840;28;20399;-81
2021/11/01 15:07:05;;;;;;;7.80;1.70;;;14.90;20.80;;;;;;5038555;28;20401;-77
2021/11/01 15:10:13;;;;;;;7.65;1.70;;;14.80;20.60;;;;;;5039347;28;20394;-78
2021/11/01 15:20:16;;;;;;;8.02;2.50;;;14.60;22.40;;;;;;5036323;28;20403;-77
2021/11/01 15:23:03;;;;;;;6.97;1.83;;;14.50;22.20;;;;;;5039305;28;20399;-78
2021/11/01 15:36:24;;;;;;;10.55;3.13;;;14.20;24.10;;;;;;5033393;28;20423;-76
2021/11/01 15:41:55;;;;;;;5.00;2.25;;;14.10;24.60;;;;;;5040487;28;20402;-77
2021/11/01 16:19:40;;;;;;;8.32;2.60;;;12.60;27.50;;;;;;5023067;28;20883;-79
2021/11/01 16:22:12;;;;;;;8.60;2.78;;;12.50;28.00;;;;;;5027168;28;20462;-78
2021/11/01 16:24:39;;;;;;;5.97;2.80;;;12.40;28.30;;;;;;5041647;28;20403;-79
2021/11/01 16:27:07;;;;;;;9.10;2.95;;;12.30;28.90;;;;;;5037634;28;20399;-78
2021/11/01 16:30:34;;;;;;;11.07;2.90;;;12.20;29.00;;;;;;5040209;28;20406;-78
2021/11/01 16:32:36;;;;;;;13.82;3.55;;;12.30;29.30;;;;;;5033457;28;20398;-79
2021/11/01 16:35:06;;;;;;;8.05;2.92;;;12.20;29.60;;;;;;5039201;28;20468;-80
2021/11/01 16:37:39;;;;;;;9.30;2.65;;;12.30;29.70;;;;;;5038024;28;20407;-77
2021/11/01 16:40:11;;;;;;;9.70;2.90;;;12.20;29.50;;;;;;5041520;28;20387;-78
2021/11/01 16:42:39;;;;;;;8.77;3.00;;;12.10;29.70;;;;;;5038835;28;20908;-80
2021/11/01 16:45:10;;;;;;;10.48;3.20;;;12.10;30.20;;;;;;5036501;28;20420;-79
2021/11/01 16:47:37;;;;;;;9.50;2.90;;;12.10;29.90;;;;;;5040363;28;20844;-78
2021/11/01 16:50:05;;;;;;;8.70;2.93;;;12.20;29.80;;;;;;5040804;28;20399;-78
2021/11/01 16:52:31;;;;;;;13.95;3.10;;;12.10;29.90;;;;;;5040524;28;20399;-79
2021/11/01 16:54:58;;;;;;;7.80;2.78;;;12.20;29.70;;;;;;5041973;28;20529;-79
2021/11/01 16:57:36;;;;;;;11.68;2.90;;;12.20;30.00;;;;;;5059974;28;20435;-77
2021/11/01 17:00:13;;;;;;;15.25;2.90;;;12.20;29.90;;;;;;5041840;28;20395;-77
2021/11/01 17:02:48;;;;;;;8.63;2.70;;;12.20;29.80;;;;;;5037353;28;20415;-78
2021/11/01 17:21:39;;;;;;;10.88;5.20;;;11.20;34.80;;;;;;5035440;28;20401;-77
2021/11/01 17:29:58;;;;;;;9.68;3.60;;;11.20;34.90;;;;;;5045019;28;20409;-77
2021/11/01 18:41:09;;;;;;;7.60;3.90;;;10.60;39.20;;;;;;5035144;28;20425;-79
2021/11/01 18:52:07;;;;;;;10.23;4.18;;;10.40;39.80;;;;;;5034684;28;20394;-76
2021/11/01 18:54:39;;;;;;;8.25;3.30;;;10.40;40.00;;;;;;5034202;28;20437;-75
2021/11/01 18:57:05;;;;;;;9.05;3.15;;;10.60;39.20;;;;;;5036152;28;20410;-77
2021/11/01 18:59:36;;;;;;;9.95;3.55;;;10.70;38.80;;;;;;5034408;28;20907;-77
2021/11/01 19:04:43;;;;;;;12.45;4.50;;;10.60;39.00;;;;;;5035273;28;20417;-76
2021/11/01 19:07:57;;;;;;;7.65;3.22;;;10.50;39.70;;;;;;5035623;28;20460;-78
2021/11/01 19:10:33;;;;;;;9.73;4.25;;;10.50;40.40;;;;;;5039934;28;20407;-78
2021/11/01 20:03:42;;;;;;;9.40;3.63;;;10.00;43.80;;;;;;5028424;28;20380;-77
2021/11/01 20:06:22;;;;;;;10.43;4.05;;;10.00;44.20;;;;;;5022974;28;20426;-76
2021/11/01 20:11:45;;;;;;;11.40;3.80;;;9.80;44.50;;;;;;5042833;28;20401;-77
2021/11/01 21:27:15;;;;;;;15.32;5.50;;;8.80;59.40;;;;;;5031937;28;20407;-77
2021/11/01 21:29:41;;;;;;;10.63;4.15;;;8.70;59.10;;;;;;5050717;28;20368;-77
2021/11/01 21:32:07;;;;;;;10.60;4.32;;;8.60;60.10;;;;;;5042363;28;20856;-76
2021/11/01 21:34:37;;;;;;;10.02;4.50;;;8.60;61.40;;;;;;5043064;28;20399;-77
2021/11/01 21:37:05;;;;;;;11.77;4.07;;;8.60;61.30;;;;;;5040764;28;20425;-78
2021/11/01 21:39:32;;;;;;;11.73;6.03;;;8.50;61.90;;;;;;5040982;28;20386;-78
2021/11/01 21:41:58;;;;;;;18.38;6.30;;;8.40;64.10;;;;;;5041728;28;20799;-76
2021/11/01 21:44:23;;;;;;;10.93;5.60;;;8.30;66.70;;;;;;5042379;28;20426;-78
2021/11/01 21:46:49;;;;;;;16.50;5.90;;;8.40;67.90;;;;;;5042695;28;20431;-78
2021/11/01 21:49:15;;;;;;;9.75;3.97;;;8.40;68.20;;;;;;5042231;28;20417;-78
2021/11/01 21:51:43;;;;;;;12.70;5.45;;;8.50;70.20;;;;;;5040841;28;20874;-79
2021/11/01 21:56:48;;;;;;;14.05;5.80;;;8.60;66.50;;;;;;5039500;28;20419;-77
2021/11/01 22:20:00;;;;;;;15.87;6.20;;;9.00;60.10;;;;;;5048773;28;20407;-77
2021/11/01 22:22:41;;;;;;;11.20;5.68;;;8.80;61.20;;;;;;5047066;28;20391;-76
2021/11/01 22:25:19;;;;;;;14.63;4.85;;;8.70;63.40;;;;;;5048587;28;20405;-79
2021/11/01 22:41:48;;;;;;;10.70;4.60;;;8.70;65.10;;;;;;5037930;28;20436;-77
2021/11/01 22:57:32;;;;;;;11.27;4.40;;;8.30;71.60;;;;;;5038871;28;20430;-76
2021/11/01 22:59:59;;;;;;;16.52;5.28;;;8.30;71.20;;;;;;5040582;28;20387;-78
2021/11/01 23:02:25;;;;;;;17.00;5.00;;;8.30;71.60;;;;;;5038562;28;20433;-77
2021/11/01 23:04:59;;;;;;;15.18;6.22;;;8.20;72.80;;;;;;5032626;28;20387;-77
2021/11/01 23:32:12;;;;;;;26.08;7.93;;;7.90;82.90;;;;;;5037596;28;20938;-77
2021/11/01 23:34:38;;;;;;;20.10;6.33;;;7.80;83.80;;;;;;5041355;28;20399;-78
2021/11/01 23:37:03;;;;;;;18.63;6.73;;;7.70;86.70;;;;;;5039575;28;20402;-78
2021/11/01 23:39:29;;;;;;;16.63;6.70;;;7.70;86.30;;;;;;5038301;28;20445;-78
2021/11/01 23:41:55;;;;;;;21.37;7.60;;;7.70;87.60;;;;;;5041123;28;20429;-77
2021/11/01 23:44:20;;;;;;;20.30;7.07;;;7.70;86.80;;;;;;5044489;28;20387;-78
2021/11/01 23:46:47;;;;;;;19.07;7.50;;;7.70;89.20;;;;;;5040110;28;20943;-77
2021/11/01 23:49:12;;;;;;;19.88;7.53;;;7.70;89.50;;;;;;5040554;28;20399;-78
2021/11/01 23:51:38;;;;;;;19.80;6.77;;;7.80;88.50;;;;;;5039872;28;20395;-76
2021/11/01 23:54:25;;;;;;;15.35;6.60;;;7.90;87.90;;;;;;5045372;28;20406;-77
2021/11/01 23:56:51;;;;;;;18.70;7.03;;;7.80;87.30;;;;;;5048960;28;20407;-76
2021/11/01 23:59:18;;;;;;;15.30;6.70;;;7.80;87.60;;;;;;5042291;28;20398;-78
